^^
Calpe Station Historical Data
 
Daily Summary for October 25, 2020 Units:  Metric    English   Both
Daily Weekly Monthly Yearly Custom
  Current: High: Low: Average:
Temperature: 16.7 °C 16.8 °C 15.4 °C 16.3 °C
Dew Point: 8.9 °C 12.6 °C 8.9 °C 11.3 °C
Humidity: 60% 78% 60% 73%
Wind Speed: 3.2km/h 9.7km/h 0km/h 2.9km/h
Wind Gust: 4.8km/h 9.7km/h - -
WindNW - - West
Pressure: 1018.1 hPa 1019.5 hPa 1018.1 hPa -
Precipitation: 0.0 mm      
Historical Graphs
 
 
Tabular Data for October 25, 2020
Time Temperature Dew Point Pressure Wind Wind Speed Wind Gust Humidity Rainfall Rate (Hourly) solar
00:00 16.4 °C 12.6 °C 1019.5 hPa WSW 1.6 km/h 4.8 km/h 78% 0.0 mm 0 W/m2
00:05 16.2 °C 12.3 °C 1019.5 hPa WSW 3.2 km/h 8 km/h 78% 0.0 mm 0 W/m2
00:10 15.9 °C 12.1 °C 1019.4 hPa West 3.2 km/h 8 km/h 78% 0.0 mm 0 W/m2
00:15 16.3 °C 12.4 °C 1019.3 hPa West 3.2 km/h 8 km/h 78% 0.0 mm 0 W/m2
00:20 16.7 °C 12.6 °C 1019.3 hPa SW 4.8 km/h 8 km/h 77% 0.0 mm 0 W/m2
00:25 16.8 °C 12.6 °C 1019.3 hPa SW 1.6 km/h 9.7 km/h 76% 0.0 mm 0 W/m2
00:30 16.7 °C 12.4 °C 1019.4 hPa SW 3.2 km/h 4.8 km/h 76% 0.0 mm 0 W/m2
00:35 16.6 °C 12.3 °C 1019.3 hPa Calm   4.8 km/h 76% 0.0 mm 0 W/m2
00:40 16.8 °C 12.5 °C 1019.2 hPa SW 1.6 km/h 4.8 km/h 76% 0.0 mm 0 W/m2
00:45 16.8 °C 12.6 °C 1019.1 hPa Calm   4.8 km/h 76% 0.0 mm 0 W/m2
00:50 16.7 °C 12.4 °C 1019.1 hPa Calm   4.8 km/h 76% 0.0 mm 0 W/m2
00:55 16.7 °C 12.4 °C 1019.1 hPa Calm   4.8 km/h 76% 0.0 mm 0 W/m2
01:00 16.5 °C 12.2 °C 1019.1 hPa SW 1.6 km/h 4.8 km/h 76% 0.0 mm 0 W/m2
01:05 16.3 °C 12.3 °C 1019.0 hPa SW 1.6 km/h 8 km/h 77% 0.0 mm 0 W/m2
01:10 16.3 °C 12.1 °C 1019.0 hPa SW 1.6 km/h 4.8 km/h 76% 0.0 mm 0 W/m2
01:15 16.3 °C 11.8 °C 1018.9 hPa SW 4.8 km/h 8 km/h 75% 0.0 mm 0 W/m2
01:20 16.2 °C 11.9 °C 1018.9 hPa Calm   8 km/h 76% 0.0 mm 0 W/m2
01:25 15.9 °C 11.7 °C 1018.8 hPa SW 1.6 km/h 4.8 km/h 76% 0.0 mm 0 W/m2
01:30 15.7 °C 11.7 °C 1018.7 hPa SW 3.2 km/h 4.8 km/h 77% 0.0 mm 0 W/m2
01:35 15.6 °C 11.6 °C 1018.7 hPa SW 3.2 km/h 4.8 km/h 77% 0.0 mm 0 W/m2
01:40 15.6 °C 11.6 °C 1018.6 hPa SW 1.6 km/h 8 km/h 77% 0.0 mm 0 W/m2
01:45 16.1 °C 11.6 °C 1018.6 hPa Calm   1.6 km/h 75% 0.0 mm 0 W/m2
01:50 16.2 °C 11.3 °C 1018.7 hPa SW 1.6 km/h 8 km/h 73% 0.0 mm 0 W/m2
01:55 15.9 °C 10.9 °C 1018.7 hPa SW 4.8 km/h 9.7 km/h 72% 0.0 mm 0 W/m2
02:00 15.9 °C 11.3 °C 1018.6 hPa WNW 3.2 km/h 9.7 km/h 74% 0.0 mm 0 W/m2
02:05 16 °C 11.2 °C 1018.5 hPa NW 4.8 km/h 8 km/h 73% 0.0 mm 0 W/m2
02:10 16.3 °C 11 °C 1018.4 hPa NW 8 km/h 8 km/h 71% 0.0 mm 0 W/m2
02:15 16.3 °C 10.7 °C 1018.4 hPa NNW 1.6 km/h 4.8 km/h 69% 0.0 mm 0 W/m2
02:20 16.2 °C 10.4 °C 1018.5 hPa NNW 4.8 km/h 8 km/h 69% 0.0 mm 0 W/m2
02:25 15.5 °C 10.1 °C 1018.5 hPa WNW 1.6 km/h 8 km/h 70% 0.0 mm 0 W/m2
02:30 15.4 °C 10.2 °C 1018.4 hPa SSW 1.6 km/h 1.6 km/h 71% 0.0 mm 0 W/m2
02:35 16 °C 10.1 °C 1018.2 hPa SSW 3.2 km/h 4.8 km/h 68% 0.0 mm 0 W/m2
02:40 16.1 °C 10.4 °C 1018.2 hPa NNW 4.8 km/h 9.7 km/h 69% 0.0 mm 0 W/m2
02:45 16.3 °C 9.9 °C 1018.1 hPa North 4.8 km/h 8 km/h 66% 0.0 mm 0 W/m2
02:50 16.5 °C 9.2 °C 1018.1 hPa North 9.7 km/h 9.7 km/h 62% 0.0 mm 0 W/m2
02:55 16.7 °C 9.3 °C 1018.1 hPa NNW 8 km/h 9.7 km/h 62% 0.0 mm 0 W/m2
02:00 16.6 °C 9.3 °C 1018.1 hPa NW 1.6 km/h 8 km/h 62% 0.0 mm 0 W/m2
02:05 16.6 °C 9.5 °C 1018.1 hPa NW 4.8 km/h 9.7 km/h 63% 0.0 mm 0 W/m2
02:10 16.7 °C 8.9 °C 1018.1 hPa NW 3.2 km/h 4.8 km/h 60% 0.0 mm 0 W/m2
Juneau County Weather
Compliments of Weather Underground - 2 mb